Главная страница
METAR-TAF:

METAR-TAF

Аэропорты :

Кривой Рог, Украина

широта: 48-03N, долгота: 033-13-12E, высота над уровнем моря: 124 м

Текущие метеонаблюдения

Эта сводка был подготовлена 25 минут назад, в 10:00 UTC
Ветер 8 Узел от западный-юго-западный, изменяющийся между южный и западно-северо-западный
Температура 15°C
Влажность 39%
Давление 1023 hPa
Видимость 10 км и более
Нет облачности ниже 1500 м, и нет кучево-дождевой облачности

METAR: UKDR 231000Z 24004MPS 190V290 CAVOK 15/01 Q1023 R18/09//70 NOSIG

Время: 12:25 (10:25 UTC)

Прогноз

Эта сводка был подготовлена 5 часа и 20 минут назад, в 05:05 UTC
Прогноз действительный с 23-го 06 UTC до 24-го 06 UTC
Ветер 6 Узел от западный-юго-западный
Видимость 10 км и более
Отдельные облака на высоте 2000 фута

TAF: UKDR 230505Z 2306/2406 25003MPS 9999 SCT020 TX16/2312Z TN03/2403Z

Метеонаблюдения и прогнозы для более 4000 аэропортов (сводки METAR и TAF).

Имеющиеся станции представлены на карте желтыми и красными точками.

Чтобы увидеть название станции, наведите на нее мышь.

Затем щелкните, чтобы увидеть метеонаблюдения и метеопрогнозы.

Управление картой: чтобы увеличить масштаб, щелкните зеленые кнопки с черным крестиком; чтобы уменьшить масштаб, щелкните зеленую кнопку с тире; для просмотра соседних карт щелкайте зеленые стрелки.


METAR-TAF: